Kennebunkport, ME

3:08 PM EST on December 25, 2014 (GMT -0500)
Seaspray | Change Station
CLOSE
Current Station
Personal Weather Station
Location: Biddeford, ME
Elevation: 20 ft
Nearby Weather Stations

Elev 20 ft 43.41 °N, 70.38 °W | Updated 3 minutes ago

Partly Cloudy
Partly Cloudy
51.5 °F
Feels Like 51.5 °F
N
2.0
Wind Variable Wind from East
Gusts 21.0 mph

Today
High -- | Low -- °F
--% Chance of Precip.
Yesterday
High -- | Low -- °F
Precip. -- in
7:13 AM 4:11 PM
Waxing Crescent, 19% visible
Pressure 29.58 in
Visibility 10.0 miles
Clouds Mostly Cloudy 5000 ft
Dew Point 35 °F
Humidity 54%
Rainfall 0.09 in
Snow Depth Not available.
UV 0 out of 12
Pollen .10 out of 12
Air Quality Not available.
Flu Activity Not available.
METAR KSFM 251955Z AUTO 25018G22KT 10SM BKN050 09/M02 A2958 RMK AO1

More Conditions Fewer Conditions

Pressure 29.58 in
Visibility 10.0 miles
Clouds Mostly Cloudy 5000 ft
Dew Point 35 °F
Humidity 54%
Rainfall 0.09 in
Snow Depth Not available.
UV 0 out of 12
Pollen .10 out of 12
Air Quality Not available.
Flu Activity Not available.
METAR KSFM 251955Z AUTO 25018G22KT 10SM BKN050 09/M02 A2958 RMK AO1

More Conditions Fewer Conditions

10-Day Weather Forecast

Almanac

Astronomy

Dec. 25, 2014 Rise Set
Actual Time
Civil Twilight
Nautical Twilight
Astronomical Twilight
Moon
Length of Visible Light
Length of Day
Tomorrow will be .
, % of the Moon is Illuminated

Today's Extremes

State Highs State Lows

Community

WunderPhotos

Upload Photos

1,780,385 photos uploaded!

WunderBlogs® & News

Nearby

Air Quality

  Air Quality AQ Index Pollutant
Not available.

Snow Depth

Station Depth Elevation

Earthquake Activity

City Distance Mag. Time & Date
Minimum magnitude displayed is 2.5.

Coastal Water Temperatures

Place Temperature

Nearby Weather Stations